Kezdőlap
METAR-TAF:

METAR-TAF

Repülőterek :

Rzeszów, Lengyelország

földrajzi szélesség: 50-06N, földrajzi hosszúság: 022-03E, magasság: 200 m

Jelenlegi meteorológiai megfigyelések

A jelentés 42 perccel ezelõtt készült, 03:00 UTC
Különbözõ irányokból fújó szél 1 kt
Hőmérséklet 9°C
Páratartalom 93%
Légköri nyomás 1015 hPa
Látótávolság 10 km, vagy több
csekély köd,

METAR: EPRZ 150300Z VRB01KT 9999 MIFG NSC 09/08 Q1015

Idő: 05:42 (03:42 UTC)

Előrejelzés

A jelentés 4 órával és 12 perccel ezelõtt készült, 23:30 UTC
Az előrejelzés 15-én 00 óra UTC és 15-én 24 óra UTC között érvényes
Dél-délkeleti szél 6 kt
Látótávolság 10 km, vagy több
felhőtlen 1500 m magasságban, és nincs gomolyfelhõ
Valószínűség 40%
15-én 00 óra UTC és 15-én 05 óra UTC között
Látótávolság: 4000 m
Párásság,

TAF: EPRZ 142330Z 1500/1524 15006KT CAVOK PROB40 1500/1505 4000 BR

Meteorológiai megfigyelések és előrejelzések több, mint 4000 repülőtéren (METAR és TAF jelentéseket).

A térképen piros és sárga pontok jelzik az elérhető meteorológiai állomásokat.

Mozgassa az egeret a pont fölött, hogy megjelenjen az állomás neve.

Azután kattintson az időjárási megfigyelések és előrejelzések megtekintéséhez.

A térkép megváltoztatása: kattintson a fekete keresztel jelölt zöld gombra ráközelítéshez, a vonallal jelölt zöld gombra távolításhoz, vagy a zöld nyilakra a szomszédos térképek eléréséhez.


METAR-TAF: